Bei Facebook empfehlenBei Twitter postenGoogle plusPinterest

Das Wetter im Erzgebirge am 28.07.2015

Wetter und Klima am 28.07.2015 Holzhau im Erzgebirge (630m ü.NN)
Letzte gemessene Temperatur und Uhrzeit der Messung23:45:00 Uhr12.40 °C
Temperatur (Maximum / Höchstwert) und Uhrzeit der Messung15:45:00 Uhr19.20 °C
Temperatur (Minimum / Tiefstwert) und Uhrzeit der Messung05:45:0011.50 °C
Errechneter Absolutwert der Temperaturschwankungen zwischen Tmin und Tmax des Tages7.70 K
Errechnete Tagesmitteltemperatur15.06875 °C
Gesamt - Niederschlag des Tages (in flüssiger Form)3.11 Liter / m²
Luftdruck (Maximum / Höchstwert) und Zeitpunkt der Messung23:30:00 Uhr1008.10 hPa
Luftdruck (Minimum / Tiefstwert) und Zeitpunkt der Messung05:15:00 Uhr1004.80 hPa
Errechneter Absolutwert der Luftdruckschwankungen des Tages3.30 hPa
Höchste gemessene Windgeschwindigkeit und Uhrzeit der Messung23:45:00 Uhr0.00 km/h
Errechnete Windhäufigkeit in Relation zu den Messwerten des Tages0.00000 %
Niedrigste Windkühle (Windchill) und Zeitpunkt der Messung05:45:00 Uhr11.50 °C
Taupunkt (Maximum / Höchstwert) und Uhrzeit der Messung11:45:00 Uhr12.40 °C
Taupunkt (Minimum / Tiefstwert) und Uhrzeit der Messung23:45:006.20 °C
Anzahl der automatisch eingelesenen Messwerte 96

Detaillierte Wetter- und Klima- Messwerte für den 28.07.2015 in Holzhau im Erzgebirge (630m ü.NN)
ZeitTemperaturLuftdruckRel. LuftfeuchteWindWindrichtungWindchillTaupunktNiederschlag l/m²
23:45:0012.40 °C1007.90 hPa66.00 %6.20 °C3.11
23:30:0012.80 °C1008.10 hPa65.00 %6.40 °C3.11
23:15:0012.90 °C1008.10 hPa64.00 %6.30 °C3.11
23:00:0013.10 °C1007.90 hPa64.00 %6.50 °C3.11
22:45:0013.20 °C1007.80 hPa64.00 %6.50 °C3.11
22:30:0013.30 °C1008.00 hPa63.00 %6.40 °C3.11
22:15:0013.30 °C1007.80 hPa63.00 %6.40 °C3.11
22:00:0013.40 °C1007.60 hPa63.00 %6.50 °C3.11
21:45:0013.50 °C1007.60 hPa62.00 %6.40 °C3.11
21:30:0013.50 °C1007.40 hPa62.00 %6.40 °C3.11
21:15:0013.50 °C1007.30 hPa62.00 %6.40 °C3.11
21:00:0013.80 °C1006.90 hPa61.00 %6.40 °C3.11
20:45:0014.40 °C1007.00 hPa60.00 %6.70 °C3.11
20:30:0014.90 °C1007.00 hPa58.00 %6.70 °C3.11
20:15:0015.30 °C1007.00 hPa58.00 %7.10 °C3.11
20:00:0015.60 °C1007.10 hPa57.00 %7.10 °C3.11
19:45:0015.90 °C1007.20 hPa55.00 %6.90 °C3.11
19:30:0016.40 °C1007.00 hPa54.00 %7.10 °C3.11
19:15:0016.80 °C1006.90 hPa54.00 %7.40 °C3.11
19:00:0017.10 °C1006.70 hPa53.00 %7.50 °C3.11
18:45:0017.30 °C1006.80 hPa52.00 %7.40 °C3.11
18:30:0017.60 °C1006.70 hPa51.00 %7.40 °C3.11
18:15:0017.60 °C1006.70 hPa52.00 %7.60 °C3.11
18:00:0017.60 °C1006.70 hPa52.00 %7.60 °C3.11
17:45:0017.60 °C1006.50 hPa51.00 %7.40 °C3.11
17:30:0017.80 °C1006.50 hPa53.00 %8.10 °C3.11
17:15:0018.10 °C1006.40 hPa51.00 %7.80 °C3.11
17:00:0018.60 °C1006.30 hPa54.00 %9.10 °C3.11
16:45:0018.70 °C1006.50 hPa55.00 %9.50 °C3.11
16:30:0017.90 °C1006.50 hPa56.00 %9.00 °C3.11
16:15:0018.10 °C1006.40 hPa56.00 %9.20 °C3.11
16:00:0018.40 °C1006.40 hPa54.00 %8.90 °C3.11
15:45:0019.20 °C1006.30 hPa53.00 %9.40 °C3.11
15:30:0019.20 °C1006.20 hPa54.00 %9.70 °C3.11
15:15:0018.90 °C1006.30 hPa55.00 %9.70 °C3.11
15:00:0018.90 °C1006.50 hPa57.00 %10.20 °C3.11
14:45:0019.10 °C1006.30 hPa61.00 %11.40 °C3.11
14:30:0018.00 °C1006.30 hPa63.00 %10.90 °C3.11
14:15:0017.30 °C1006.30 hPa59.00 %9.20 °C3.11
14:00:0017.90 °C1006.10 hPa64.00 %11.00 °C3.11
13:45:0017.40 °C1006.10 hPa63.00 %10.30 °C3.11
13:30:0017.40 °C1006.10 hPa64.00 %10.50 °C3.11
13:15:0017.30 °C1006.20 hPa67.00 %11.10 °C3.11
13:00:0017.40 °C1006.10 hPa68.00 %11.40 °C3.11
12:45:0016.50 °C1006.20 hPa72.00 %11.40 °C3.11
12:30:0016.90 °C1006.10 hPa72.00 %11.80 °C3.11
12:15:0016.80 °C1006.20 hPa75.00 %12.30 °C3.11
12:00:0016.10 °C1006.20 hPa75.00 %11.70 °C3.11
11:45:0016.90 °C1006.30 hPa75.00 %12.40 °C3.11
11:30:0016.30 °C1005.90 hPa77.00 %12.30 °C3.11
11:15:0015.30 °C1006.10 hPa81.00 %12.10 °C3.11
11:00:0014.50 °C1006.20 hPa81.00 %11.30 °C3.11
10:45:0014.60 °C1006.00 hPa84.00 %11.90 °C3.11
10:30:0014.40 °C1005.80 hPa83.00 %11.60 °C3.11
10:15:0014.10 °C1006.00 hPa86.00 %11.80 °C3.11
10:00:0013.30 °C1006.00 hPa86.00 %11.00 °C3.11
09:45:0012.90 °C1005.90 hPa82.00 %9.90 °C3.11
09:30:0014.40 °C1006.00 hPa77.00 %10.40 °C2.08
09:15:0015.80 °C1005.40 hPa72.00 %10.80 °C 
09:00:0016.40 °C1005.40 hPa72.00 %11.30 °C 
08:45:0016.30 °C1005.50 hPa74.00 %11.70 °C 
08:30:0015.50 °C1005.50 hPa75.00 %11.10 °C 
08:15:0015.50 °C1005.50 hPa76.00 %11.30 °C 
08:00:0014.80 °C1005.60 hPa77.00 %10.80 °C 
07:45:0014.50 °C1005.40 hPa77.00 %10.50 °C 
07:30:0015.00 °C1005.40 hPa77.00 %11.00 °C 
07:15:0013.90 °C1005.20 hPa79.00 %10.30 °C 
07:00:0013.60 °C1005.20 hPa79.00 %10.00 °C 
06:45:0013.60 °C1005.30 hPa81.00 %10.40 °C 
06:30:0012.90 °C1005.20 hPa83.00 %10.10 °C 
06:15:0012.30 °C1004.90 hPa84.00 %9.70 °C 
06:00:0011.80 °C1004.90 hPa84.00 %9.20 °C 
05:45:0011.50 °C1005.00 hPa83.00 %8.70 °C 
05:30:0011.60 °C1004.90 hPa82.00 %8.60 °C 
05:15:0011.90 °C1004.80 hPa80.00 %8.60 °C 
05:00:0012.60 °C1004.80 hPa80.00 %9.20 °C 
04:45:0013.00 °C1004.90 hPa79.00 %9.40 °C 
04:30:0013.30 °C1005.10 hPa79.00 %9.70 °C 
04:15:0013.40 °C1005.00 hPa79.00 %9.80 °C 
04:00:0013.50 °C1005.10 hPa78.00 %9.70 °C 
03:45:0013.60 °C1005.00 hPa79.00 %10.00 °C 
03:30:0013.50 °C1005.00 hPa79.00 %9.90 °C 
03:15:0013.40 °C1005.20 hPa79.00 %9.80 °C 
03:00:0013.70 °C1005.30 hPa79.00 %10.10 °C 
02:45:0013.70 °C1005.40 hPa80.00 %10.30 °C 
02:30:0013.60 °C1005.40 hPa80.00 %10.20 °C 
02:15:0013.30 °C1005.60 hPa82.00 %10.30 °C 
02:00:0012.90 °C1005.70 hPa82.00 %9.90 °C 
01:45:0012.70 °C1005.60 hPa82.00 %9.70 °C 
01:30:0012.90 °C1005.60 hPa81.00 %9.70 °C 
01:15:0013.30 °C1005.60 hPa81.00 %10.10 °C 
01:00:0013.30 °C1005.60 hPa81.00 %10.10 °C 
00:45:0013.30 °C1005.70 hPa81.00 %10.10 °C 
00:30:0013.30 °C1005.70 hPa82.00 %10.30 °C 
00:15:0013.10 °C1005.80 hPa83.00 %10.30 °C 
00:00:0012.90 °C1005.90 hPa83.00 %10.10 °C 

Permanenter Link zu dieser Seite: Wetter im Erzgebirge am 28.07.2015
Performance-Info: Die Erstellung der Seite / Statistik(en) / Tabelle(n) erforderte 5 Datenbankserver-Abfrage(n) und dauerte 100 Millisekunden. (Dieser Messwert ist von der Gesamt-Auslastung des Servers abhängig.)
Erzgebirge - Wetter | Erzgebirge - Wetter (Mobilgeräte) | Komplette Klimadatenbank